sensor_id;sensor_type;location;lat;lon;timestamp;pressure;altitude;pressure_sealevel;temperature;humidity
55456;BME280;63021;52.836;6.376;2023-05-23T00:01:55;101769.00;;;14.42;74.08
55456;BME280;63021;52.836;6.376;2023-05-23T00:04:23;101766.47;;;14.41;74.77
55456;BME280;63021;52.836;6.376;2023-05-23T00:06:51;101767.34;;;14.41;74.67
55456;BME280;63021;52.836;6.376;2023-05-23T00:09:17;101761.41;;;14.37;74.99
55456;BME280;63021;52.836;6.376;2023-05-23T00:11:43;101766.78;;;14.37;75.01
55456;BME280;63021;52.836;6.376;2023-05-23T00:14:12;101768.78;;;14.35;75.31
55456;BME280;63021;52.836;6.376;2023-05-23T00:16:39;101769.09;;;14.32;75.22
55456;BME280;63021;52.836;6.376;2023-05-23T00:19:05;101776.41;;;14.30;75.54
55456;BME280;63021;52.836;6.376;2023-05-23T00:21:32;101768.00;;;14.25;75.53
55456;BME280;63021;52.836;6.376;2023-05-23T00:23:57;101768.97;;;14.24;75.82
55456;BME280;63021;52.836;6.376;2023-05-23T00:26:23;101773.75;;;14.20;75.36
55456;BME280;63021;52.836;6.376;2023-05-23T00:28:49;101768.88;;;14.16;76.03
55456;BME280;63021;52.836;6.376;2023-05-23T00:31:14;101782.56;;;14.13;76.20
55456;BME280;63021;52.836;6.376;2023-05-23T00:33:39;101775.13;;;14.07;75.91
55456;BME280;63021;52.836;6.376;2023-05-23T00:36:05;101783.28;;;14.05;75.76
55456;BME280;63021;52.836;6.376;2023-05-23T00:38:30;101787.94;;;14.03;76.11
55456;BME280;63021;52.836;6.376;2023-05-23T00:40:56;101789.22;;;13.99;75.54
55456;BME280;63021;52.836;6.376;2023-05-23T00:43:21;101786.00;;;13.95;76.20
55456;BME280;63021;52.836;6.376;2023-05-23T00:45:47;101788.97;;;13.92;76.51
55456;BME280;63021;52.836;6.376;2023-05-23T00:48:13;101792.63;;;13.91;76.30
55456;BME280;63021;52.836;6.376;2023-05-23T00:50:39;101798.28;;;13.88;76.71
55456;BME280;63021;52.836;6.376;2023-05-23T00:53:05;101798.56;;;13.85;76.58
55456;BME280;63021;52.836;6.376;2023-05-23T00:55:31;101784.63;;;13.81;76.65
55456;BME280;63021;52.836;6.376;2023-05-23T00:57:56;101807.00;;;13.80;77.04
55456;BME280;63021;52.836;6.376;2023-05-23T01:00:24;101795.47;;;13.80;76.80
55456;BME280;63021;52.836;6.376;2023-05-23T01:02:50;101793.94;;;13.77;77.04
55456;BME280;63021;52.836;6.376;2023-05-23T01:05:17;101803.50;;;13.80;76.78
55456;BME280;63021;52.836;6.376;2023-05-23T01:07:43;101807.31;;;13.77;77.40
55456;BME280;63021;52.836;6.376;2023-05-23T01:10:09;101803.50;;;13.80;77.17
55456;BME280;63021;52.836;6.376;2023-05-23T01:12:55;101812.66;;;13.77;77.10
55456;BME280;63021;52.836;6.376;2023-05-23T01:15:56;101812.81;;;13.76;76.98
55456;BME280;63021;52.836;6.376;2023-05-23T01:18:32;101810.28;;;13.74;77.11
55456;BME280;63021;52.836;6.376;2023-05-23T01:21:05;101813.41;;;13.69;76.80
55456;BME280;63021;52.836;6.376;2023-05-23T01:26:21;101825.81;;;13.61;77.71
55456;BME280;63021;52.836;6.376;2023-05-23T01:29:02;101832.13;;;13.60;77.38
55456;BME280;63021;52.836;6.376;2023-05-23T01:31:36;101838.31;;;13.60;77.34
55456;BME280;63021;52.836;6.376;2023-05-23T01:34:05;101833.97;;;13.59;77.25
55456;BME280;63021;52.836;6.376;2023-05-23T01:36:33;101836.66;;;13.59;77.70
55456;BME280;63021;52.836;6.376;2023-05-23T01:39:00;101838.59;;;13.57;77.62
55456;BME280;63021;52.836;6.376;2023-05-23T01:41:26;101843.13;;;13.57;77.30
55456;BME280;63021;52.836;6.376;2023-05-23T01:43:53;101836.06;;;13.56;77.56
55456;BME280;63021;52.836;6.376;2023-05-23T01:46:19;101837.06;;;13.55;77.58
55456;BME280;63021;52.836;6.376;2023-05-23T01:48:46;101838.06;;;13.54;77.95
55456;BME280;63021;52.836;6.376;2023-05-23T01:51:13;101848.03;;;13.51;77.09
55456;BME280;63021;52.836;6.376;2023-05-23T01:53:38;101841.84;;;13.51;77.47
55456;BME280;63021;52.836;6.376;2023-05-23T01:56:04;101845.38;;;13.51;77.06
55456;BME280;63021;52.836;6.376;2023-05-23T01:58:30;101851.72;;;13.50;76.99
55456;BME280;63021;52.836;6.376;2023-05-23T02:00:55;101851.97;;;13.47;76.96
55456;BME280;63021;52.836;6.376;2023-05-23T02:03:21;101858.47;;;13.45;77.63
55456;BME280;63021;52.836;6.376;2023-05-23T02:05:46;101868.75;;;13.40;77.25
55456;BME280;63021;52.836;6.376;2023-05-23T02:08:12;101868.56;;;13.31;76.89
55456;BME280;63021;52.836;6.376;2023-05-23T02:10:37;101868.84;;;13.28;77.41
55456;BME280;63021;52.836;6.376;2023-05-23T02:13:02;101880.53;;;13.27;77.58
55456;BME280;63021;52.836;6.376;2023-05-23T02:15:28;101881.53;;;13.26;77.41
55456;BME280;63021;52.836;6.376;2023-05-23T02:17:53;101881.66;;;13.25;77.32
55456;BME280;63021;52.836;6.376;2023-05-23T02:20:19;101877.28;;;13.24;77.64
55456;BME280;63021;52.836;6.376;2023-05-23T02:22:45;101884.34;;;13.25;77.54
55456;BME280;63021;52.836;6.376;2023-05-23T02:25:10;101889.53;;;13.26;77.76
55456;BME280;63021;52.836;6.376;2023-05-23T02:27:36;101889.69;;;13.25;77.06
55456;BME280;63021;52.836;6.376;2023-05-23T02:30:01;101889.09;;;13.21;77.26
55456;BME280;63021;52.836;6.376;2023-05-23T02:32:27;101890.94;;;13.21;77.24
55456;BME280;63021;52.836;6.376;2023-05-23T02:34:53;101885.16;;;13.15;77.22
55456;BME280;63021;52.836;6.376;2023-05-23T02:37:19;101890.66;;;13.14;76.97
55456;BME280;63021;52.836;6.376;2023-05-23T02:39:44;101889.94;;;13.12;77.04
55456;BME280;63021;52.836;6.376;2023-05-23T02:42:09;101902.44;;;13.11;76.95
55456;BME280;63021;52.836;6.376;2023-05-23T02:44:35;101906.97;;;13.11;76.62
55456;BME280;63021;52.836;6.376;2023-05-23T02:47:00;101905.41;;;13.08;77.57
55456;BME280;63021;52.836;6.376;2023-05-23T02:49:26;101896.84;;;13.05;76.64
55456;BME280;63021;52.836;6.376;2023-05-23T02:51:51;101909.59;;;13.01;76.93
55456;BME280;63021;52.836;6.376;2023-05-23T02:54:16;101909.88;;;12.98;76.23
55456;BME280;63021;52.836;6.376;2023-05-23T02:56:44;101912.00;;;12.94;76.20
55456;BME280;63021;52.836;6.376;2023-05-23T02:59:09;101911.28;;;12.92;76.42
55456;BME280;63021;52.836;6.376;2023-05-23T03:01:36;101909.44;;;12.93;76.61
55456;BME280;63021;52.836;6.376;2023-05-23T03:04:02;101907.91;;;12.90;76.20
55456;BME280;63021;52.836;6.376;2023-05-23T03:06:28;101915.06;;;12.90;76.33
55456;BME280;63021;52.836;6.376;2023-05-23T03:08:56;101916.16;;;12.87;76.33
55456;BME280;63021;52.836;6.376;2023-05-23T03:11:21;101917.31;;;12.85;76.46
55456;BME280;63021;52.836;6.376;2023-05-23T03:13:47;101913.91;;;12.82;75.74
55456;BME280;63021;52.836;6.376;2023-05-23T03:16:12;101911.38;;;12.81;75.96
55456;BME280;63021;52.836;6.376;2023-05-23T03:18:37;101927.41;;;12.81;76.45
55456;BME280;63021;52.836;6.376;2023-05-23T03:21:06;101932.75;;;12.81;75.87
55456;BME280;63021;52.836;6.376;2023-05-23T03:23:31;101927.41;;;12.81;75.88
55456;BME280;63021;52.836;6.376;2023-05-23T03:25:56;101920.38;;;12.80;75.94
55456;BME280;63021;52.836;6.376;2023-05-23T03:28:23;101931.91;;;12.80;76.03
55456;BME280;63021;52.836;6.376;2023-05-23T03:30:49;101924.88;;;12.79;75.91
55456;BME280;63021;52.836;6.376;2023-05-23T03:33:14;101927.53;;;12.79;75.67
55456;BME280;63021;52.836;6.376;2023-05-23T03:35:40;101938.50;;;12.76;75.53
55456;BME280;63021;52.836;6.376;2023-05-23T03:38:05;101937.09;;;12.72;75.90
55456;BME280;63021;52.836;6.376;2023-05-23T03:40:31;101936.25;;;12.72;76.30
55456;BME280;63021;52.836;6.376;2023-05-23T03:43:01;101950.44;;;12.72;76.06
55456;BME280;63021;52.836;6.376;2023-05-23T03:45:29;101949.75;;;12.70;75.68
55456;BME280;63021;52.836;6.376;2023-05-23T03:47:54;101944.53;;;12.69;75.67
55456;BME280;63021;52.836;6.376;2023-05-23T03:50:20;101947.34;;;12.67;75.46
55456;BME280;63021;52.836;6.376;2023-05-23T03:52:45;101956.88;;;12.70;75.95
55456;BME280;63021;52.836;6.376;2023-05-23T03:55:11;101962.09;;;12.71;75.47
55456;BME280;63021;52.836;6.376;2023-05-23T03:57:36;101954.22;;;12.70;76.09
55456;BME280;63021;52.836;6.376;2023-05-23T04:00:03;101956.06;;;12.69;75.42
55456;BME280;63021;52.836;6.376;2023-05-23T04:02:30;101954.34;;;12.68;75.87
55456;BME280;63021;52.836;6.376;2023-05-23T04:04:56;101955.47;;;12.65;75.52
55456;BME280;63021;52.836;6.376;2023-05-23T04:07:22;101959.00;;;12.66;75.92
55456;BME280;63021;52.836;6.376;2023-05-23T04:09:50;101970.66;;;12.65;75.51
55456;BME280;63021;52.836;6.376;2023-05-23T04:12:16;101969.97;;;12.63;75.92
55456;BME280;63021;52.836;6.376;2023-05-23T04:14:41;101970.09;;;12.61;75.54
55456;BME280;63021;52.836;6.376;2023-05-23T04:17:07;101974.69;;;12.59;76.05
55456;BME280;63021;52.836;6.376;2023-05-23T04:19:33;101977.50;;;12.58;75.62
55456;BME280;63021;52.836;6.376;2023-05-23T04:21:59;101972.44;;;12.55;75.83
55456;BME280;63021;52.836;6.376;2023-05-23T04:24:24;101975.38;;;12.52;75.83
55456;BME280;63021;52.836;6.376;2023-05-23T04:26:50;101984.63;;;12.47;75.55
55456;BME280;63021;52.836;6.376;2023-05-23T04:29:15;101989.22;;;12.45;75.55
55456;BME280;63021;52.836;6.376;2023-05-23T04:31:41;101985.28;;;12.40;75.27
55456;BME280;63021;52.836;6.376;2023-05-23T04:34:10;101987.75;;;12.32;75.52
55456;BME280;63021;52.836;6.376;2023-05-23T04:36:35;102002.81;;;12.33;75.53
55456;BME280;63021;52.836;6.376;2023-05-23T04:39:05;101998.72;;;12.28;76.19
55456;BME280;63021;52.836;6.376;2023-05-23T04:41:31;102005.84;;;12.28;76.01
55456;BME280;63021;52.836;6.376;2023-05-23T04:43:56;102010.50;;;12.26;75.80
55456;BME280;63021;52.836;6.376;2023-05-23T04:46:22;102008.91;;;12.23;76.07
55456;BME280;63021;52.836;6.376;2023-05-23T04:48:51;102015.34;;;12.21;75.83
55456;BME280;63021;52.836;6.376;2023-05-23T04:51:17;102026.41;;;12.16;75.86
55456;BME280;63021;52.836;6.376;2023-05-23T04:53:43;102019.38;;;12.15;76.60
55456;BME280;63021;52.836;6.376;2023-05-23T04:56:09;102028.53;;;12.12;76.31
55456;BME280;63021;52.836;6.376;2023-05-23T04:58:34;102033.84;;;12.12;76.70
55456;BME280;63021;52.836;6.376;2023-05-23T05:00:59;102030.31;;;12.12;76.72
55456;BME280;63021;52.836;6.376;2023-05-23T05:03:25;102030.44;;;12.10;76.27
55456;BME280;63021;52.836;6.376;2023-05-23T05:05:51;102029.75;;;12.08;76.50
55456;BME280;63021;52.836;6.376;2023-05-23T05:08:17;102042.97;;;12.10;76.73
55456;BME280;63021;52.836;6.376;2023-05-23T05:10:44;102051.09;;;12.08;76.05
55456;BME280;63021;52.836;6.376;2023-05-23T05:13:09;102049.25;;;12.09;75.80
55456;BME280;63021;52.836;6.376;2023-05-23T05:15:35;102045.03;;;12.06;76.00
55456;BME280;63021;52.836;6.376;2023-05-23T05:18:00;102053.41;;;12.02;76.14
55456;BME280;63021;52.836;6.376;2023-05-23T05:20:26;102059.72;;;12.01;75.92
55456;BME280;63021;52.836;6.376;2023-05-23T05:22:56;102064.34;;;11.99;75.35
55456;BME280;63021;52.836;6.376;2023-05-23T05:25:21;102069.94;;;11.95;75.89
55456;BME280;63021;52.836;6.376;2023-05-23T05:27:47;102071.13;;;11.91;75.52
55456;BME280;63021;52.836;6.376;2023-05-23T05:30:12;102069.44;;;11.90;75.45
55456;BME280;63021;52.836;6.376;2023-05-23T05:32:38;102077.44;;;11.90;76.04
55456;BME280;63021;52.836;6.376;2023-05-23T05:35:03;102081.31;;;11.86;75.37
55456;BME280;63021;52.836;6.376;2023-05-23T05:37:29;102086.78;;;11.85;74.97
55456;BME280;63021;52.836;6.376;2023-05-23T05:39:55;102088.63;;;11.84;75.19
55456;BME280;63021;52.836;6.376;2023-05-23T05:42:23;102094.06;;;11.83;74.92
55456;BME280;63021;52.836;6.376;2023-05-23T05:44:49;102089.72;;;11.82;74.70
55456;BME280;63021;52.836;6.376;2023-05-23T05:47:15;102100.63;;;11.78;75.22
55456;BME280;63021;52.836;6.376;2023-05-23T05:49:40;102103.69;;;11.74;74.45
55456;BME280;63021;52.836;6.376;2023-05-23T05:52:07;102110.09;;;11.71;74.61
55456;BME280;63021;52.836;6.376;2023-05-23T05:54:32;102123.56;;;11.70;75.16
55456;BME280;63021;52.836;6.376;2023-05-23T05:56:58;102129.16;;;11.67;74.67
55456;BME280;63021;52.836;6.376;2023-05-23T05:59:23;102130.25;;;11.64;74.08
55456;BME280;63021;52.836;6.376;2023-05-23T06:01:49;102126.94;;;11.60;73.79
55456;BME280;63021;52.836;6.376;2023-05-23T06:04:17;102126.34;;;11.57;73.98
55456;BME280;63021;52.836;6.376;2023-05-23T06:06:43;102130.94;;;11.55;73.96
55456;BME280;63021;52.836;6.376;2023-05-23T06:09:08;102132.19;;;11.51;73.22
55456;BME280;63021;52.836;6.376;2023-05-23T06:11:35;102130.59;;;11.48;73.32
55456;BME280;63021;52.836;6.376;2023-05-23T06:14:03;102134.94;;;11.49;74.07
55456;BME280;63021;52.836;6.376;2023-05-23T06:16:28;102133.03;;;11.51;73.46
55456;BME280;63021;52.836;6.376;2023-05-23T06:18:54;102148.19;;;11.51;73.51
55456;BME280;63021;52.836;6.376;2023-05-23T06:21:19;102144.06;;;11.47;73.24
55456;BME280;63021;52.836;6.376;2023-05-23T06:23:44;102153.75;;;11.48;73.39
55456;BME280;63021;52.836;6.376;2023-05-23T06:26:10;102151.19;;;11.46;73.81
55456;BME280;63021;52.836;6.376;2023-05-23T06:28:37;102153.03;;;11.46;73.41
55456;BME280;63021;52.836;6.376;2023-05-23T06:31:06;102156.53;;;11.46;72.84
55456;BME280;63021;52.836;6.376;2023-05-23T06:33:34;102168.19;;;11.45;73.17
55456;BME280;63021;52.836;6.376;2023-05-23T06:35:59;102171.56;;;11.47;72.71
55456;BME280;63021;52.836;6.376;2023-05-23T06:38:26;102168.06;;;11.47;72.84
55456;BME280;63021;52.836;6.376;2023-05-23T06:40:52;102177.16;;;11.44;72.46
55456;BME280;63021;52.836;6.376;2023-05-23T06:43:17;102169.16;;;11.44;72.45
55456;BME280;63021;52.836;6.376;2023-05-23T06:45:45;102170.72;;;11.47;72.79
55456;BME280;63021;52.836;6.376;2023-05-23T06:48:11;102174.13;;;11.49;72.06
55456;BME280;63021;52.836;6.376;2023-05-23T06:50:37;102173.28;;;11.48;72.51
55456;BME280;63021;52.836;6.376;2023-05-23T06:53:02;102174.34;;;11.46;72.77
55456;BME280;63021;52.836;6.376;2023-05-23T06:55:28;102175.31;;;11.44;71.81
55456;BME280;63021;52.836;6.376;2023-05-23T06:57:54;102185.16;;;11.44;72.80
55456;BME280;63021;52.836;6.376;2023-05-23T07:00:20;102183.69;;;11.40;71.92
55456;BME280;63021;52.836;6.376;2023-05-23T07:02:45;102188.91;;;11.41;71.71
55456;BME280;63021;52.836;6.376;2023-05-23T07:05:13;102188.66;;;11.44;71.13
55456;BME280;63021;52.836;6.376;2023-05-23T07:07:39;102186.59;;;11.48;71.27
55456;BME280;63021;52.836;6.376;2023-05-23T07:10:06;102192.53;;;11.52;70.66
55456;BME280;63021;52.836;6.376;2023-05-23T07:12:31;102195.81;;;11.55;70.51
55456;BME280;63021;52.836;6.376;2023-05-23T07:14:57;102198.00;;;11.61;70.59
55456;BME280;63021;52.836;6.376;2023-05-23T07:17:22;102203.59;;;11.70;69.61
55456;BME280;63021;52.836;6.376;2023-05-23T07:19:48;102202.84;;;11.79;69.48
55456;BME280;63021;52.836;6.376;2023-05-23T07:22:13;102202.13;;;11.88;69.07
55456;BME280;63021;52.836;6.376;2023-05-23T07:24:39;102203.25;;;11.97;69.27
55456;BME280;63021;52.836;6.376;2023-05-23T07:27:04;102200.22;;;12.02;68.48
55456;BME280;63021;52.836;6.376;2023-05-23T07:29:30;102200.81;;;12.05;67.76
55456;BME280;63021;52.836;6.376;2023-05-23T07:31:56;102214.03;;;12.07;67.73
55456;BME280;63021;52.836;6.376;2023-05-23T07:34:23;102206.38;;;12.13;67.93
55456;BME280;63021;52.836;6.376;2023-05-23T07:36:48;102218.38;;;12.19;67.95
55456;BME280;63021;52.836;6.376;2023-05-23T07:39:14;102206.47;;;12.23;67.68
55456;BME280;63021;52.836;6.376;2023-05-23T07:41:46;102215.09;;;12.27;67.14
55456;BME280;63021;52.836;6.376;2023-05-23T07:44:11;102222.13;;;12.28;66.11
55456;BME280;63021;52.836;6.376;2023-05-23T07:46:36;102231.22;;;12.25;65.74
55456;BME280;63021;52.836;6.376;2023-05-23T07:49:02;102234.41;;;12.19;65.58
55456;BME280;63021;52.836;6.376;2023-05-23T07:51:27;102229.19;;;12.18;65.36
55456;BME280;63021;52.836;6.376;2023-05-23T07:53:53;102232.69;;;12.18;66.16
55456;BME280;63021;52.836;6.376;2023-05-23T07:56:18;102235.34;;;12.18;65.60
55456;BME280;63021;52.836;6.376;2023-05-23T07:58:43;102232.22;;;12.13;64.85
55456;BME280;63021;52.836;6.376;2023-05-23T08:01:09;102233.31;;;12.10;65.33
55456;BME280;63021;52.836;6.376;2023-05-23T08:03:34;102242.41;;;12.08;65.11
55456;BME280;63021;52.836;6.376;2023-05-23T08:06:00;102239.50;;;12.11;64.50
55456;BME280;63021;52.836;6.376;2023-05-23T08:08:25;102232.22;;;12.13;64.65
55456;BME280;63021;52.836;6.376;2023-05-23T08:10:51;102238.03;;;12.18;64.79
55456;BME280;63021;52.836;6.376;2023-05-23T08:13:16;102235.84;;;12.23;64.88
55456;BME280;63021;52.836;6.376;2023-05-23T08:15:42;102239.84;;;12.29;64.49
55456;BME280;63021;52.836;6.376;2023-05-23T08:18:07;102232.81;;;12.28;63.34
55456;BME280;63021;52.836;6.376;2023-05-23T08:20:33;102248.47;;;12.33;63.35
55456;BME280;63021;52.836;6.376;2023-05-23T08:23:00;102243.47;;;12.39;64.20
55456;BME280;63021;52.836;6.376;2023-05-23T08:25:26;102242.97;;;12.45;62.94
55456;BME280;63021;52.836;6.376;2023-05-23T08:27:55;102250.88;;;12.47;62.82
55456;BME280;63021;52.836;6.376;2023-05-23T08:30:22;102249.50;;;12.53;62.55
55456;BME280;63021;52.836;6.376;2023-05-23T08:32:47;102249.97;;;12.58;62.83
55456;BME280;63021;52.836;6.376;2023-05-23T08:35:13;102254.94;;;12.62;63.13
55456;BME280;63021;52.836;6.376;2023-05-23T08:37:38;102258.81;;;12.70;62.82
55456;BME280;63021;52.836;6.376;2023-05-23T08:40:06;102257.59;;;12.74;62.41
55456;BME280;63021;52.836;6.376;2023-05-23T08:42:32;102262.94;;;12.74;62.34
55456;BME280;63021;52.836;6.376;2023-05-23T08:44:58;102267.75;;;12.80;62.82
55456;BME280;63021;52.836;6.376;2023-05-23T08:47:24;102265.22;;;12.78;62.37
55456;BME280;63021;52.836;6.376;2023-05-23T08:49:51;102268.50;;;12.82;62.29
55456;BME280;63021;52.836;6.376;2023-05-23T08:52:20;102260.56;;;12.92;62.32
55456;BME280;63021;52.836;6.376;2023-05-23T08:54:49;102251.63;;;13.03;62.75
55456;BME280;63021;52.836;6.376;2023-05-23T08:57:15;102251.31;;;13.17;62.68
55456;BME280;63021;52.836;6.376;2023-05-23T08:59:45;102249.31;;;13.30;61.56
55456;BME280;63021;52.836;6.376;2023-05-23T09:02:11;102262.41;;;13.45;61.50
55456;BME280;63021;52.836;6.376;2023-05-23T09:04:37;102264.75;;;13.59;61.60
55456;BME280;63021;52.836;6.376;2023-05-23T09:07:02;102259.41;;;13.69;60.26
55456;BME280;63021;52.836;6.376;2023-05-23T09:09:28;102254.41;;;13.76;59.64
55456;BME280;63021;52.836;6.376;2023-05-23T09:11:54;102262.75;;;13.82;59.73
55456;BME280;63021;52.836;6.376;2023-05-23T09:14:20;102265.72;;;13.89;59.24
55456;BME280;63021;52.836;6.376;2023-05-23T09:16:46;102267.28;;;13.92;59.28
55456;BME280;63021;52.836;6.376;2023-05-23T09:19:14;102266.59;;;13.90;58.96
55456;BME280;63021;52.836;6.376;2023-05-23T09:21:43;102272.78;;;13.90;58.64
55456;BME280;63021;52.836;6.376;2023-05-23T09:24:10;102266.53;;;13.80;57.48
55456;BME280;63021;52.836;6.376;2023-05-23T09:26:36;102265.91;;;13.66;57.04
55456;BME280;63021;52.836;6.376;2023-05-23T09:29:04;102268.13;;;13.61;57.54
55456;BME280;63021;52.836;6.376;2023-05-23T09:31:31;102281.97;;;13.66;57.90
55456;BME280;63021;52.836;6.376;2023-05-23T09:33:57;102292.97;;;13.73;58.33
55456;BME280;63021;52.836;6.376;2023-05-23T09:36:26;102283.84;;;13.76;57.21
55456;BME280;63021;52.836;6.376;2023-05-23T09:38:54;102288.03;;;13.68;57.15
55456;BME280;63021;52.836;6.376;2023-05-23T09:41:20;102293.38;;;13.68;57.45
55456;BME280;63021;52.836;6.376;2023-05-23T09:43:50;102282.13;;;13.75;57.20
55456;BME280;63021;52.836;6.376;2023-05-23T09:46:20;102277.84;;;13.83;57.73
55456;BME280;63021;52.836;6.376;2023-05-23T09:48:55;102284.38;;;14.00;58.01
55456;BME280;63021;52.836;6.376;2023-05-23T09:51:22;102298.25;;;14.15;57.82
55456;BME280;63021;52.836;6.376;2023-05-23T09:53:48;102297.56;;;14.23;57.00
55456;BME280;63021;52.836;6.376;2023-05-23T09:56:18;102290.50;;;14.22;56.49
55456;BME280;63021;52.836;6.376;2023-05-23T09:58:48;102293.44;;;14.09;56.75
55456;BME280;63021;52.836;6.376;2023-05-23T10:01:15;102294.38;;;13.98;56.56
55456;BME280;63021;52.836;6.376;2023-05-23T10:03:51;102296.72;;;13.92;56.26
55456;BME280;63021;52.836;6.376;2023-05-23T10:06:28;102312.66;;;13.93;56.51
55456;BME280;63021;52.836;6.376;2023-05-23T10:08:58;102309.28;;;13.91;56.08
55456;BME280;63021;52.836;6.376;2023-05-23T10:14:05;102308.88;;;13.96;55.99
55456;BME280;63021;52.836;6.376;2023-05-23T10:21:49;102303.91;;;14.22;56.16
55456;BME280;63021;52.836;6.376;2023-05-23T10:24:20;102309.03;;;14.35;56.15
55456;BME280;63021;52.836;6.376;2023-05-23T10:26:47;102312.63;;;14.45;56.60
55456;BME280;63021;52.836;6.376;2023-05-23T10:29:12;102313.16;;;14.49;55.80
55456;BME280;63021;52.836;6.376;2023-05-23T10:31:38;102325.16;;;14.45;54.73
55456;BME280;63021;52.836;6.376;2023-05-23T10:34:26;102332.03;;;14.37;54.63
55456;BME280;63021;52.836;6.376;2023-05-23T10:37:06;102335.41;;;14.30;54.20
55456;BME280;63021;52.836;6.376;2023-05-23T10:45:21;102319.84;;;14.24;54.38
55456;BME280;63021;52.836;6.376;2023-05-23T10:47:48;102327.78;;;14.25;54.27
55456;BME280;63021;52.836;6.376;2023-05-23T10:50:34;102313.41;;;14.36;54.96
55456;BME280;63021;52.836;6.376;2023-05-23T10:53:03;102325.72;;;14.48;54.27
55456;BME280;63021;52.836;6.376;2023-05-23T10:55:33;102328.56;;;14.56;53.80
55456;BME280;63021;52.836;6.376;2023-05-23T10:58:28;102336.72;;;14.45;52.69
55456;BME280;63021;52.836;6.376;2023-05-23T11:01:17;102331.84;;;14.29;52.08
55456;BME280;63021;52.836;6.376;2023-05-23T11:03:50;102332.66;;;14.20;52.46
55456;BME280;63021;52.836;6.376;2023-05-23T11:06:40;102331.56;;;14.23;53.11
55456;BME280;63021;52.836;6.376;2023-05-23T11:09:14;102337.47;;;14.26;53.58
55456;BME280;63021;52.836;6.376;2023-05-23T11:14:15;102336.97;;;14.42;53.39
55456;BME280;63021;52.836;6.376;2023-05-23T11:16:42;102341.53;;;14.51;53.53
55456;BME280;63021;52.836;6.376;2023-05-23T11:21:49;102342.88;;;14.67;52.75
55456;BME280;63021;52.836;6.376;2023-05-23T11:24:15;102342.19;;;14.75;52.11
55456;BME280;63021;52.836;6.376;2023-05-23T11:26:57;102355.31;;;14.78;51.40
55456;BME280;63021;52.836;6.376;2023-05-23T11:29:29;102356.56;;;14.73;51.48
55456;BME280;63021;52.836;6.376;2023-05-23T11:31:56;102348.09;;;14.68;51.42
55456;BME280;63021;52.836;6.376;2023-05-23T11:34:24;102335.84;;;14.76;51.26
55456;BME280;63021;52.836;6.376;2023-05-23T11:36:54;102349.97;;;14.87;51.39
55456;BME280;63021;52.836;6.376;2023-05-23T11:39:20;102345.03;;;14.93;51.20
55456;BME280;63021;52.836;6.376;2023-05-23T11:41:58;102344.91;;;14.94;51.48
55456;BME280;63021;52.836;6.376;2023-05-23T11:44:24;102351.41;;;14.92;51.66
55456;BME280;63021;52.836;6.376;2023-05-23T11:47:05;102347.16;;;14.89;50.86
55456;BME280;63021;52.836;6.376;2023-05-23T11:49:33;102349.28;;;14.95;51.40
55456;BME280;63021;52.836;6.376;2023-05-23T11:52:01;102355.50;;;15.05;51.70
55456;BME280;63021;52.836;6.376;2023-05-23T11:54:27;102347.75;;;15.12;51.63
55456;BME280;63021;52.836;6.376;2023-05-23T11:56:53;102351.84;;;15.16;50.91
55456;BME280;63021;52.836;6.376;2023-05-23T11:59:20;102356.06;;;15.09;50.04
55456;BME280;63021;52.836;6.376;2023-05-23T12:01:46;102353.22;;;15.01;50.64
55456;BME280;63021;52.836;6.376;2023-05-23T12:04:11;102356.78;;;15.01;50.99
55456;BME280;63021;52.836;6.376;2023-05-23T12:06:40;102352.13;;;15.13;50.02
55456;BME280;63021;52.836;6.376;2023-05-23T12:09:10;102346.19;;;15.19;50.53
55456;BME280;63021;52.836;6.376;2023-05-23T12:11:36;102352.69;;;15.27;50.70
55456;BME280;63021;52.836;6.376;2023-05-23T12:14:03;102357.22;;;15.16;50.48
55456;BME280;63021;52.836;6.376;2023-05-23T12:16:31;102358.91;;;15.07;50.47
55456;BME280;63021;52.836;6.376;2023-05-23T12:18:58;102362.72;;;15.15;51.34
55456;BME280;63021;52.836;6.376;2023-05-23T12:21:43;102370.50;;;15.37;51.05
55456;BME280;63021;52.836;6.376;2023-05-23T12:24:19;102367.38;;;15.52;51.04
55456;BME280;63021;52.836;6.376;2023-05-23T12:26:57;102381.63;;;15.52;50.21
55456;BME280;63021;52.836;6.376;2023-05-23T12:29:31;102374.16;;;15.46;49.00
55456;BME280;63021;52.836;6.376;2023-05-23T12:31:58;102376.00;;;15.36;48.47
55456;BME280;63021;52.836;6.376;2023-05-23T12:34:24;102367.53;;;15.31;49.35
55456;BME280;63021;52.836;6.376;2023-05-23T12:36:53;102365.97;;;15.38;49.19
55456;BME280;63021;52.836;6.376;2023-05-23T12:39:29;102368.94;;;15.54;49.26
55456;BME280;63021;52.836;6.376;2023-05-23T12:42:06;102373.16;;;15.76;48.78
55456;BME280;63021;52.836;6.376;2023-05-23T12:44:32;102386.88;;;15.83;47.96
55456;BME280;63021;52.836;6.376;2023-05-23T12:46:58;102376.13;;;15.73;47.51
55456;BME280;63021;52.836;6.376;2023-05-23T12:49:23;102387.56;;;15.66;47.64
55456;BME280;63021;52.836;6.376;2023-05-23T12:51:49;102382.38;;;15.54;47.39
55456;BME280;63021;52.836;6.376;2023-05-23T12:54:14;102370.50;;;15.37;46.80
55456;BME280;63021;52.836;6.376;2023-05-23T12:56:40;102372.44;;;15.25;47.31
55456;BME280;63021;52.836;6.376;2023-05-23T12:59:05;102384.16;;;15.15;47.08
55456;BME280;63021;52.836;6.376;2023-05-23T13:01:33;102377.38;;;15.11;46.55
55456;BME280;63021;52.836;6.376;2023-05-23T13:03:59;102364.56;;;15.14;47.25
55456;BME280;63021;52.836;6.376;2023-05-23T13:06:25;102370.50;;;15.28;47.60
55456;BME280;63021;52.836;6.376;2023-05-23T13:08:50;102366.81;;;15.38;47.60
55456;BME280;63021;52.836;6.376;2023-05-23T13:11:19;102365.25;;;15.46;46.90
55456;BME280;63021;52.836;6.376;2023-05-23T13:13:45;102371.63;;;15.45;46.46